Flight Track Log - Related Links

Times and Time Zones

All times are in EDT time to prevent confusion due to time zone crossing. See the N72PV flight status page for this flight to view local times or setup timezone preferences in your user account.

Time Position Orientation Groundspeed Altitude Reporting Facility
EDT Latitude Longitude Course Direction KTS MPH feet Rate Location/Type
Mon 02:16:00 PM 45.7644 -122.5881 347° North  Level FlightAware Approximate
Mon 02:17:02 PM 45.8454 -122.6293 15° North 142 163 3,200  Level FlightAware ADS-B
Mon 02:17:20 PM 45.8501 -122.6275 15° North 142 163 3,500 970 Climbing FlightAware ADS-B
Mon 02:18:41 PM 45.9092 -122.6316 350° North 132 152 4,800 950 Climbing FlightAware ADS-B (KPFC)
Mon 02:19:01 PM 45.9221 -122.6348 350° North 132 152 5,100 900 Climbing FlightAware ADS-B (KPFC)
Mon 02:19:21 PM 45.9348 -122.6378 350° North 131 151 5,400 808 Climbing FlightAware ADS-B (KPFC)
Mon 02:19:53 PM 45.9550 -122.6427 350° North 131 151 5,800 808 Climbing FlightAware ADS-B (KPFC)
Mon 02:20:13 PM 45.9677 -122.6459 350° North 130 150 6,100 900 Climbing FlightAware ADS-B (KPFC)
Mon 02:20:33 PM 45.9797 -122.6488 350° North 136 157 6,400 923 Climbing FlightAware ADS-B (KPFC)
Mon 02:21:05 PM 45.9996 -122.6539 350° North 134 154 6,900 923 Climbing FlightAware ADS-B (KPFC)
Mon 02:21:25 PM 46.0121 -122.6572 350° North 134 154 7,200 900 Climbing FlightAware ADS-B (KPFC)
Mon 02:21:45 PM 46.0241 -122.6604 349° North 132 152 7,500 649 Climbing FlightAware ADS-B (KPFC)
Mon 02:22:02 PM 46.0341 -122.6633 350° North 134 154 7,600 78 Climbing FlightAware ADS-B
Mon 02:23:02 PM 46.0768 -122.6750 350° North 167 192 7,600  Level FlightAware ADS-B
Mon 02:23:05 PM 46.0794 -122.6751 351° North 167 192 7,600  Level FlightAware ADS-B (KPFC)
Mon 02:23:18 PM 46.0890 -122.6770 351° North 169 194 7,600  Level FlightAware ADS-B
Mon 02:23:24 PM 46.0938 -122.6780 353° North 170 196 7,600  Level FlightAware ADS-B
Mon 02:23:39 PM 46.1059 -122.6800 355° North 171 197 7,600  Level FlightAware ADS-B
Mon 02:23:41 PM 46.1074 -122.6804 355° North 163 188 7,600  Level FlightAware ADS-B (KPFC)
Mon 02:24:02 PM 46.1233 -122.6820 358° North 170 196 7,600  Level FlightAware ADS-B
Mon 02:24:17 PM 46.1354 -122.6820 358° North 170 196 7,600  Level FlightAware ADS-B
Mon 02:24:20 PM 46.1380 -122.6824 357° North 164 189 7,600  Level FlightAware ADS-B (KPFC)
Mon 02:24:27 PM 46.1433 -122.6830 356° North 171 197 7,600  Level FlightAware ADS-B
Mon 02:24:42 PM 46.1552 -122.6840 357° North 173 199 7,600  Level FlightAware ADS-B
Mon 02:25:00 PM 46.1699 -122.6850 357° North 175 201 7,600  Level FlightAware ADS-B
Mon 02:25:09 PM 46.1776 -122.6855 357° North 176 203 7,600  Level FlightAware ADS-B (KPFC)
Mon 02:25:15 PM 46.1818 -122.6860 358° North 176 203 7,600  Level FlightAware ADS-B
Mon 02:25:29 PM 46.1936 -122.6864 358° North 175 201 7,600  Level FlightAware ADS-B (KPFC)
Mon 02:25:30 PM 46.1939 -122.6860 358° North 175 201 7,600  Level FlightAware ADS-B
Mon 02:25:45 PM 46.2064 -122.6870 358° North 173 199 7,600  Level FlightAware ADS-B
Mon 02:25:49 PM 46.2096 -122.6873 358° North 163 188 7,600  Level FlightAware ADS-B (KPFC)
Mon 02:26:01 PM 46.2191 -122.6880 358° North 169 194 7,600  Level FlightAware ADS-B
Mon 02:26:16 PM 46.2310 -122.6880 358° North 169 194 7,600  Level FlightAware ADS-B
Mon 02:26:25 PM 46.2381 -122.6888 358° North 160 184 7,600  Level FlightAware ADS-B (KPFC)
Mon 02:26:30 PM 46.2416 -122.6890 358° North 167 192 7,600  Level FlightAware ADS-B
Mon 02:26:45 PM 46.2533 -122.6895 358° North 166 191 7,600  Level FlightAware ADS-B (KPFC)
Mon 02:26:49 PM 46.2561 -122.6900 358° North 166 191 7,600  Level FlightAware ADS-B
Mon 02:27:04 PM 46.2676 -122.6910 357° North 165 190 7,600  Level FlightAware ADS-B
Mon 02:27:05 PM 46.2687 -122.6906 357° North 164 189 7,600  Level FlightAware ADS-B (KPFC)
Mon 02:27:14 PM 46.2755 -122.6910 358° North 164 189 7,600  Level FlightAware ADS-B
Mon 02:27:25 PM 46.2832 -122.6914 358° North 164 189 7,600  Level FlightAware ADS-B (KPFC)
Mon 02:27:31 PM 46.2880 -122.6920 358° North 164 189 7,600  Level FlightAware ADS-B
Mon 02:27:46 PM 46.2996 -122.6920 358° North 166 191 7,600  Level FlightAware ADS-B
Mon 02:28:01 PM 46.3112 -122.6930 358° North 166 191 7,600  Level FlightAware ADS-B
Mon 02:28:05 PM 46.3142 -122.6932 358° North 159 183 7,600  Level FlightAware ADS-B (KPFC)
Mon 02:28:15 PM 46.3218 -122.6940 358° North 168 193 7,600  Level FlightAware ADS-B
Mon 02:28:22 PM 46.3277 -122.6940 357° North 168 193 7,600  Level FlightAware ADS-B
Mon 02:28:25 PM 46.3299 -122.6942 357° North 161 185 7,600  Level FlightAware ADS-B (KPFC)
Mon 02:28:32 PM 46.3352 -122.6950 358° North 169 194 7,600  Level FlightAware ADS-B
Mon 02:28:45 PM 46.3457 -122.6950 358° North 170 196 7,600  Level FlightAware ADS-B
Mon 02:28:59 PM 46.3561 -122.6960 358° North 168 193 7,600  Level FlightAware ADS-B
Mon 02:29:08 PM 46.3636 -122.6960 358° North 167 192 7,600  Level FlightAware ADS-B
Mon 02:29:24 PM 46.3754 -122.6970 358° North 168 193 7,600  Level FlightAware ADS-B
Mon 02:29:38 PM 46.3863 -122.6970 358° North 168 193 7,600  Level FlightAware ADS-B
Mon 02:29:49 PM 46.3949 -122.6980 358° North 168 193 7,600  Level FlightAware ADS-B
Mon 02:29:57 PM 46.4010 -122.6980 358° North 160 184 7,600  Level FlightAware ADS-B (KPFC)
Mon 02:30:03 PM 46.4056 -122.6980 359° North 168 193 7,600  Level FlightAware ADS-B
Mon 02:30:15 PM 46.4150 -122.6990 359° North 169 194 7,600  Level FlightAware ADS-B
Mon 02:30:17 PM 46.4170 -122.6987 359° North 161 185 7,600  Level FlightAware ADS-B (KPFC)
Mon 02:30:30 PM 46.4266 -122.6990 359° North 169 194 7,600  Level FlightAware ADS-B
Mon 02:30:45 PM 46.4387 -122.7000 358° North 170 196 7,600  Level FlightAware ADS-B
Mon 02:30:53 PM 46.4447 -122.7000 357° North 169 194 7,600  Level FlightAware ADS-B
Mon 02:30:56 PM 46.4476 -122.7000 358° North 168 193 7,600  Level FlightAware ADS-B
Mon 02:31:05 PM 46.4544 -122.7010 357° North 167 192 7,600  Level FlightAware ADS-B
Mon 02:31:13 PM 46.4605 -122.7010 357° North 169 194 7,600  Level FlightAware ADS-B
Mon 02:31:28 PM 46.4724 -122.7020 359° North 169 194 7,600  Level FlightAware ADS-B
Mon 02:31:33 PM 46.4765 -122.7018 358° North 160 184 7,600  Level FlightAware ADS-B (KPFC)
Mon 02:31:36 PM 46.4789 -122.7020 358° North 167 192 7,600  Level FlightAware ADS-B
Mon 02:31:45 PM 46.4853 -122.7020 357° North 166 191 7,600  Level FlightAware ADS-B
Mon 02:31:53 PM 46.4917 -122.7030 356° North 165 190 7,600  Level FlightAware ADS-B
Mon 02:32:02 PM 46.4988 -122.7040 356° North 165 190 7,600  Level FlightAware ADS-B
Mon 02:32:17 PM 46.5095 -122.7050 356° North 164 189 7,600  Level FlightAware ADS-B
Mon 02:32:29 PM 46.5190 -122.7050 357° North 163 188 7,600  Level FlightAware ADS-B
Mon 02:32:38 PM 46.5259 -122.7060 358° North 163 188 7,600  Level FlightAware ADS-B
Mon 02:32:41 PM 46.5283 -122.7060 358° North 162 186 7,600  Level FlightAware ADS-B (KPFC)
Mon 02:32:46 PM 46.5318 -122.7060 357° North 162 186 7,600  Level FlightAware ADS-B
Mon 02:33:01 PM 46.5433 -122.7070 357° North 161 185 7,600  Level FlightAware ADS-B
Mon 02:33:17 PM 46.5548 -122.7080 357° North 161 185 7,600  Level FlightAware ADS-B
Mon 02:33:21 PM 46.5581 -122.7083 358° North 161 185 7,600  Level FlightAware ADS-B (KPFC)
Mon 02:33:36 PM 46.5688 -122.7090 358° North 161 185 7,600  Level FlightAware ADS-B
Mon 02:33:45 PM 46.5759 -122.7093 358° North 162 186 7,600  Level FlightAware ADS-B (KPFC)
Mon 02:33:48 PM 46.5783 -122.7090 358° North 163 188 7,600  Level FlightAware ADS-B
Mon 02:34:04 PM 46.5901 -122.7100 358° North 163 188 7,600  Level FlightAware ADS-B
Mon 02:34:19 PM 46.6017 -122.7110 358° North 163 188 7,600  Level FlightAware ADS-B
Mon 02:34:33 PM 46.6118 -122.7120 357° North 163 188 7,600  Level FlightAware ADS-B
Mon 02:34:41 PM 46.6177 -122.7120 357° North 162 186 7,600  Level FlightAware ADS-B
Mon 02:34:56 PM 46.6292 -122.7130 358° North 162 186 7,600  Level FlightAware ADS-B
Mon 02:35:11 PM 46.6405 -122.7130 358° North 162 186 7,600  Level FlightAware ADS-B
Mon 02:35:21 PM 46.6480 -122.7140 357° North 161 185 7,600  Level FlightAware ADS-B
Mon 02:35:29 PM 46.6538 -122.7140 357° North 160 184 7,600  Level FlightAware ADS-B
Mon 02:35:44 PM 46.6652 -122.7150 358° North 162 186 7,600  Level FlightAware ADS-B
Mon 02:36:00 PM 46.6768 -122.7150 358° North 163 188 7,600  Level FlightAware ADS-B
Mon 02:36:08 PM 46.6832 -122.7160 357° North 163 188 7,600  Level FlightAware ADS-B
Mon 02:36:19 PM 46.6916 -122.7160 357° North 164 189 7,600  Level FlightAware ADS-B
Mon 02:37:18 PM 46.7360 -122.7190 357° North 164 189 7,600  Level FlightAware ADS-B
Mon 02:37:36 PM 46.7493 -122.7200 358° North 163 188 7,600  Level FlightAware ADS-B
Mon 02:37:51 PM 46.7610 -122.7210 358° North 163 188 7,600  Level FlightAware ADS-B
Mon 02:38:04 PM 46.7702 -122.7210 358° North 162 186 7,600  Level FlightAware ADS-B
Mon 02:38:19 PM 46.7817 -122.7220 358° North 163 188 7,600  Level FlightAware ADS-B
Mon 02:38:34 PM 46.7931 -122.7230 358° North 165 190 7,600  Level FlightAware ADS-B
Mon 02:38:49 PM 46.8045 -122.7230 358° North 164 189 7,600  Level FlightAware ADS-B
Mon 02:38:59 PM 46.8122 -122.7230 358° North 164 189 7,600  Level FlightAware ADS-B
Mon 02:39:05 PM 46.8164 -122.7240 355° North 165 190 7,600  Level FlightAware ADS-B
Mon 02:39:08 PM 46.8192 -122.7240 348° North 163 188 7,600  Level FlightAware ADS-B
Mon 02:39:15 PM 46.8239 -122.7270 334° Northwest 162 186 7,600 -279 Level FlightAware ADS-B
Mon 02:39:51 PM 46.8437 -122.7550 311° West 171 197 7,400 -353 Descending FlightAware ADS-B
Mon 02:40:06 PM 46.8515 -122.7690 310° West 174 200 7,300 -387 Descending FlightAware ADS-B
Mon 02:40:22 PM 46.8593 -122.7830 310° West 177 204 7,200 -316 Descending FlightAware ADS-B
Mon 02:40:25 PM 46.8613 -122.7860 313° West 178 205 7,200 -750 Level FlightAware ADS-B
Mon 02:40:30 PM 46.8642 -122.7900 321° Northwest 180 207 7,100 -750 Descending FlightAware ADS-B
Mon 02:40:33 PM 46.8666 -122.7920 328° Northwest 181 208 7,100 -857 Level FlightAware ADS-B
Mon 02:40:37 PM 46.8696 -122.7940 336° Northwest 181 208 7,000 -600 Descending FlightAware ADS-B
Mon 02:40:43 PM 46.8738 -122.7960 342° North 180 207 7,000  Level FlightAware ADS-B
Mon 02:40:47 PM 46.8774 -122.7980 344° North 180 207 7,000  Level FlightAware ADS-B
Mon 02:40:55 PM 46.8837 -122.8000 346° North 180 207 7,000 -316 Level FlightAware ADS-B
Mon 02:41:06 PM 46.8925 -122.8030 348° North 180 207 6,900 -500 Descending FlightAware ADS-B
Mon 02:41:19 PM 46.9030 -122.8070 349° North 181 208 6,800 -500 Descending FlightAware ADS-B
Mon 02:41:30 PM 46.9121 -122.8090 349° North 179 206 6,700 -667 Descending FlightAware ADS-B
Mon 02:41:37 PM 46.9179 -122.8110 349° North 179 206 6,600 -353 Descending FlightAware ADS-B
Mon 02:41:47 PM 46.9259 -122.8130 349° North 181 208 6,600 -400 Level FlightAware ADS-B
Mon 02:41:52 PM 46.9301 -122.8140 350° North 182 209 6,500 -923 Descending FlightAware ADS-B
Mon 02:42:00 PM 46.9368 -122.8160 350° North 183 211 6,400 -375 Descending FlightAware ADS-B
Mon 02:42:08 PM 46.9436 -122.8180 349° North 181 208 6,400 -353 Level FlightAware ADS-B
Mon 02:42:17 PM 46.9504 -122.8200 350° North 179 206 6,300 -632 Descending FlightAware ADS-B
Mon 02:42:27 PM 46.9587 -122.8220 350° North 177 204 6,200 -480 Descending FlightAware ADS-B
Mon 02:42:42 PM 46.9711 -122.8250 349° North 175 201 6,100 -444 Descending FlightAware ADS-B
Mon 02:42:54 PM 46.9807 -122.8280 350° North 175 201 6,000 -522 Descending FlightAware ADS-B
Mon 02:43:05 PM 46.9892 -122.8300 350° North 174 200 5,900 -462 Descending FlightAware ADS-B
Mon 02:43:20 PM 47.0013 -122.8330 349° North 174 200 5,800 -500 Descending FlightAware ADS-B
Mon 02:43:29 PM 47.0084 -122.8350 349° North 174 200 5,700 -571 Descending FlightAware ADS-B
Mon 02:43:41 PM 47.0175 -122.8380 349° North 173 199 5,600 -429 Descending FlightAware ADS-B
Mon 02:43:57 PM 47.0297 -122.8410 349° North 173 199 5,500 -500 Descending FlightAware ADS-B
Mon 02:44:05 PM 47.0365 -122.8430 349° North 174 200 5,400 -353 Descending FlightAware ADS-B
Mon 02:44:14 PM 47.0436 -122.8450 349° North 174 200 5,400 -400 Level FlightAware ADS-B
Mon 02:44:20 PM 47.0480 -122.8460 350° North 175 201 5,300 -667 Descending FlightAware ADS-B
Mon 02:44:32 PM 47.0575 -122.8490 349° North 174 200 5,200 -480 Descending FlightAware ADS-B
Mon 02:44:45 PM 47.0682 -122.8520 349° North 175 201 5,100 -750 Descending FlightAware ADS-B
Mon 02:44:56 PM 47.0772 -122.8540 349° North 174 200 4,900 -571 Descending FlightAware ADS-B
Mon 02:45:06 PM 47.0847 -122.8570 349° North 174 200 4,900 -353 Level FlightAware ADS-B
Mon 02:45:13 PM 47.0900 -122.8580 349° North 174 200 4,800 -706 Descending FlightAware ADS-B
Mon 02:45:23 PM 47.0980 -122.8600 349° North 174 200 4,700 -667 Descending FlightAware ADS-B
Mon 02:45:31 PM 47.1048 -122.8620 349° North 175 201 4,600 -632 Descending FlightAware ADS-B
Mon 02:45:42 PM 47.1134 -122.8650 349° North 177 204 4,500 -462 Descending FlightAware ADS-B
Mon 02:45:57 PM 47.1258 -122.8680 349° North 177 204 4,400 -500 Descending FlightAware ADS-B
Mon 02:46:06 PM 47.1327 -122.8700 350° North 176 203 4,300 -500 Descending FlightAware ADS-B
Mon 02:46:21 PM 47.1449 -122.8740 350° North 177 204 4,200 -750 Descending FlightAware ADS-B
Mon 02:46:30 PM 47.1517 -122.8750 350° North 178 205 4,000 -750 Descending FlightAware ADS-B
Mon 02:46:45 PM 47.1641 -122.8790 350° North 178 205 3,900 -667 Descending FlightAware ADS-B
Mon 02:46:57 PM 47.1734 -122.8810 350° North 178 205 3,700 -857 Descending FlightAware ADS-B
Mon 02:47:06 PM 47.1809 -122.8830 350° North 179 206 3,600 -750 Descending FlightAware ADS-B
Mon 02:47:21 PM 47.1932 -122.8860 350° North 179 206 3,400 -800 Descending FlightAware ADS-B
Mon 02:47:36 PM 47.2058 -122.8900 349° North 179 206 3,200 -720 Descending FlightAware ADS-B
Mon 02:47:46 PM 47.2140 -122.8920 350° North 180 207 3,100 -750 Descending FlightAware ADS-B
Mon 02:47:52 PM 47.2189 -122.8930 North 181 208 3,000 -1,200 Descending FlightAware ADS-B
Mon 02:47:56 PM 47.2217 -122.8920 North 181 208 2,900 -857 Descending FlightAware ADS-B
Mon 02:47:59 PM 47.2242 -122.8920 12° North 181 208 2,900  Level FlightAware ADS-B
Mon 02:48:03 PM 47.2279 -122.8900 17° North 180 207 2,900 -667 Level FlightAware ADS-B
Mon 02:48:08 PM 47.2313 -122.8880 20° North 179 206 2,800 -857 Descending FlightAware ADS-B
Mon 02:48:17 PM 47.2387 -122.8840 21° North 180 207 2,700 -632 Descending FlightAware ADS-B
Mon 02:48:27 PM 47.2462 -122.8800 21° North 182 209 2,600 -632 Descending FlightAware ADS-B
Mon 02:48:36 PM 47.2535 -122.8760 19° North 183 211 2,500 -750 Descending FlightAware ADS-B
Mon 02:48:51 PM 47.2657 -122.8700 17° North 183 211 2,300 -800 Descending FlightAware ADS-B
Mon 02:49:06 PM 47.2779 -122.8650 17° North 183 211 2,100 -667 Descending FlightAware ADS-B
Mon 02:49:18 PM 47.2872 -122.8610 17° North 179 206 2,000 -571 Descending FlightAware ADS-B
Mon 02:49:27 PM 47.2944 -122.8570 18° North 177 204 1,900 -316 Descending FlightAware ADS-B
Mon 02:49:37 PM 47.3023 -122.8540 17° North 175 201 1,900 -240 Level FlightAware ADS-B
Mon 02:49:52 PM 47.3140 -122.8480 17° North 174 200 1,800 -500 Descending FlightAware ADS-B
Mon 02:50:01 PM 47.3210 -122.8450 18° North 173 199 1,700 -545 Descending FlightAware ADS-B
Mon 02:50:14 PM 47.3302 -122.8410 18° North 172 198 1,600 -214 Descending FlightAware ADS-B
Mon 02:50:29 PM 47.3421 -122.8350 18° North 170 196 1,600  Level FlightAware ADS-B
Mon 02:50:45 PM 47.3534 -122.8300 17° North 165 190 1,600  Level FlightAware ADS-B
Mon 02:51:00 PM 47.3645 -122.8250 17° North 161 185 1,600  Level FlightAware ADS-B
Mon 02:51:15 PM 47.3754 -122.8200 17° North 160 184 1,600  Level FlightAware ADS-B
Mon 02:51:26 PM 47.3830 -122.8160 18° North 159 183 1,600  Level FlightAware ADS-B
Mon 02:51:41 PM 47.3934 -122.8110 18° North 157 181 1,600  Level FlightAware ADS-B
Mon 02:51:56 PM 47.4037 -122.8070 17° North 155 178 1,600 -286 Level FlightAware ADS-B
Mon 02:52:02 PM 47.4079 -122.8050 18° North 155 178 1,500 -462 Descending FlightAware ADS-B
Mon 02:52:09 PM 47.4128 -122.8020 19° North 156 180 1,500 -462 Level FlightAware ADS-B
Mon 02:52:15 PM 47.4162 -122.8010 19° North 157 181 1,400 -600 Descending FlightAware ADS-B
Mon 02:52:19 PM 47.4192 -122.7990 24° Northeast 157 181 1,400  Level FlightAware ADS-B
Mon 02:52:25 PM 47.4229 -122.7960 29° Northeast 156 180 1,400  Level FlightAware ADS-B
Mon 02:52:31 PM 47.4266 -122.7930 30° Northeast 153 176 1,400 -429 Level FlightAware ADS-B
Mon 02:52:39 PM 47.4318 -122.7890 29° Northeast 155 178 1,300 -462 Descending FlightAware ADS-B
Mon 02:52:44 PM 47.4348 -122.7860 27° Northeast 157 181 1,300 -500 Level FlightAware ADS-B
Mon 02:52:51 PM 47.4396 -122.7830 27° Northeast 160 184 1,200 -545 Descending FlightAware ADS-B
Mon 02:52:55 PM 47.4425 -122.7810 27° Northeast 161 185 1,200 -462 Level FlightAware ADS-B
Mon 02:53:04 PM 47.4485 -122.7760 26° Northeast 158 182 1,100 -375 Descending FlightAware ADS-B
Mon 02:53:11 PM 47.4527 -122.7730 25° Northeast 157 181 1,100 -545 Level FlightAware ADS-B
Mon 02:53:15 PM 47.4556 -122.7710 28° Northeast 155 178 1,000 -750 Descending FlightAware ADS-B
Mon 02:53:19 PM 47.4579 -122.7690 32° Northeast 154 177 1,000  Level FlightAware ADS-B
Mon 02:53:23 PM 47.4599 -122.7670 36° Northeast 150 173 1,000  Level FlightAware ADS-B
Mon 02:53:27 PM 47.4621 -122.7650 39° Northeast 146 168 1,000 500 Level FlightAware ADS-B
Mon 02:53:35 PM 47.4665 -122.7590 42° Northeast 140 161 1,100 400 Climbing FlightAware ADS-B
Mon 02:53:42 PM 47.4695 -122.7550 42° Northeast 136 157 1,100  Level FlightAware ADS-B
Mon 02:53:47 PM 47.4719 -122.7520 40° Northeast 134 154 1,100  Level FlightAware ADS-B
Mon 02:53:57 PM 47.4768 -122.7460 39° Northeast 129 148 1,100  Level FlightAware ADS-B
Mon 02:54:06 PM 47.4806 -122.7410 39° Northeast 120 138 1,100  Level FlightAware ADS-B
Mon 02:54:17 PM 47.4852 -122.7360 40° Northeast 112 129 1,100 -529 Level FlightAware ADS-B
Mon 02:54:40 PM 47.4948 -122.7260 17° North 110 127 800 -563 Descending FlightAware ADS-B
Mon 02:54:49 PM 47.4989 -122.7270 North 106 122 800  Level FlightAware ADS-B
Mon 02:54:59 PM 47.5024 -122.7310 312° West 91 105 800  Level FlightAware ADS-B

Login

Don't have an account? Register now (free) for customized features, flight alerts, and more!